Logo AVAMET
Benvolgut visitant, si us plau, ingressa Recuperar contrasenya
AVAMET paisatges

Pedreguer Ocaive

Dades diàries. Acumulats / Últims 30 dies disponibles

Data Temperatura (°C) Humitat rel. (%) Pressió rel. (hPa) Vent (km/h) Precipitació
Mínima Mitjana Màxima Amplitud
tèrmica
Mínima Mitjana Màxima Mínima Mitjana Màxima Predom. Mitjana Ràfega
màxima
Total
(mm)
Índex-n
Mínima Mitjana Màxima Mínima Mitjana Màxima n
0 a 1
P0 max
mm 5'
Dades mensuals acumulades fins l'últim dia disponible
05/2020 13,3 15,4 18,9 21,0 21,6 26,5 30,8 17,5 31 67 95 1.004 1.017 1.028   5,1 49,9 4,2
Dades anuals acumulades fins l'últim dia disponible
2020 3,2 10,4 18,9 14,8 10,8 19,6 30,8 27,6 17 75 98 1.002 1.020 1.035   4,2 93,3 236,8
Últims 30 dies disponibles
27-05-2020 15,1     19,9     24,4 9,3 55 77 91 1.024 1.025 1.026 SE 4,9 27,4 0,0
26-05-2020 14,8     19,7     23,2 8,4 64 78 90 1.024 1.025 1.026 SW 4,7 25,7 0,0
25-05-2020 14,4     19,3     24,4 10,0 55 71 89 1.023 1.026 1.027 SW 3,4 24,1 0,0
24-05-2020 16,4     20,6     23,8 7,4 54 79 91 1.026 1.027 1.028 SW 4,2 24,1 0,0
23-05-2020 15,3     23,6     30,6 15,3 31 50 77 1.022 1.024 1.026 SE 4,7 33,8 0,0
22-05-2020 16,3     23,7     30,8 14,5 36 59 89 1.020 1.022 1.024 SE 5,8 40,2 0,0
21-05-2020 15,9     23,2     30,4 14,5 32 63 93 1.017 1.018 1.020 SW 4,7 32,2 0,0
19-05-2020 13,3     22,3     29,4 16,1 35 57 87 1.015 1.017 1.020 SW 3,2 27,4 0,0
13-05-2020 14,2     18,9     24,2 10,0 43 60 89 1.004 1.006 1.007 SW 6,1 27,4 0,0
12-05-2020 15,1     18,9     22,4 7,3 52 70 90 1.006 1.008 1.011 SW 3,9 29,0 0,0
11-05-2020 18,2     21,5     26,4 8,2 35 50 67 1.007 1.008 1.011 WSW 10,8 38,6 0,0
10-05-2020 14,3     19,2     24,6 10,3 32 66 94 1.004 1.006 1.009 WSW 8,7 49,9 4,2 0,31 0,90
09-05-2020 15,0     19,9     25,1 10,1 65 80 93 1.008 1.011 1.015 SW 3,4 25,7 0,0
08-05-2020 16,3     19,2     21,6 5,3 72 84 93 1.014 1.016 1.018 NE 4,5 30,6 0,0
07-05-2020 15,1     19,2     23,6 8,5 51 81 95 1.017 1.018 1.019 SW 3,9 22,5 0,0
06-05-2020 15,4     20,1     25,9 10,5 48 76 93 1.014 1.016 1.018 SW 3,5 22,5 0,0
05-05-2020 14,4     21,3     29,0 14,6 40 70 94 1.012 1.014 1.015 SW 2,6 17,7 0,0
04-05-2020 13,6     19,7     28,6 15,0 31 79 95 1.013 1.015 1.017 SW 3,7 41,8 0,0
03-05-2020 15,8     22,3     28,1 12,3 40 62 93 1.015 1.017 1.019 SW 4,3 27,4 0,0
02-05-2020 18,9     25,6     30,1 11,2 33 47 69 1.016 1.018 1.020 WSW 7,6 35,4 0,0
01-05-2020 15,7     23,8     30,0 14,3 34 47 69 1.015 1.017 1.019 WSW 8,5 46,7 0,0
30-04-2020 16,7     21,8     26,4 9,7 35 47 65 1.014 1.016 1.018 OSO 8,2 40,2 0,0
29-04-2020 13,7     19,8     25,8 12,1 33 47 63 1.015 1.017 1.019 SW 7,7 30,6 0,0
28-04-2020 12,7     18,7     22,9 10,2 39 55 76 1.013 1.014 1.016 WSW 6,8 37,0 0,0
27-04-2020 12,6     17,4     22,8 10,2 58 79 96 1.010 1.011 1.013 SW 3,5 24,1 0,4
26-04-2020 11,3     15,8     21,8 10,5 62 83 96 1.010 1.011 1.013 SW 3,4 24,1 1,0 0,42 0,40
25-04-2020 10,6     14,1     16,3 5,7 82 89 94 1.009 1.011 1.014 SW 1,3 16,1 0,6
24-04-2020 10,6     15,9     20,3 9,7 50 69 91 1.013 1.016 1.019 SW 3,9 29,0 0,0
23-04-2020 11,7     15,9     20,8 9,1 55 79 95 1.018 1.020 1.021 SW 4,7 27,4 0,0
22-04-2020 12,5     14,8     18,3 5,8 65 82 93 1.006 1.013 1.020 W 5,0 41,8 10,0
Últims 13 mesos disponibles
04/2020 7,4 11,6 16,7 15,4 14,2 19,3 26,4 19,0 47 78 94 1.006 1.016 1.026 SW 3,9 41,8 49,6
03/2020 5,9 10,3 16,1 14,1 10,8 18,0 26,1 20,2 42 79 96 1.007 1.016 1.027 SW 5,2 93,3 70,4
02/2020 5,8 9,1 13,2 14,4 13,9 20,6 27,1 21,3 33 71 89 1.014 1.026 1.033 SW 3,1 40,2 5,6
01/2020 3,2 7,2 14,1 11,1 12,6 15,9 21,9 18,7 53 77 93 1.016 1.027 1.033 SW 3,7 72,4 107,0
12/2019 5,4 10,0 19,1 13,6 12,6 17,9 24,4 19,0 48 74 96 1.004 1.019 1.033 SW 4,4 78,9 182,2
11/2019 5,2 11,4 19,4 15,4 14,3 19,4 26,9 21,7 44 59 82 999 1.011 1.019 SW 6,8 66,0 8,0
10/2019 9,8 15,2 18,9 19,6 16,6 24,5 32,8 23,0 46 73 90 1.009 1.016 1.022 SW 3,4 59,5 95,2
09/2019 14,0 18,9 22,3 22,6 20,2 26,1 33,9 19,9 57 82 96 1.010 1.017 1.023 SW 4,7 67,6 129,0
08/2019 18,1 21,2 26,6 26,2 26,2 31,2 38,4 20,3 44 71 84 1.009 1.015 1.019 SW 5,0 51,5 109,0
07/2019 19,4 21,3 26,5 26,7 28,0 31,9 39,4 20,0 41 64 80 1.005 1.013 1.020 SW 5,8 74,0 0,4
06/2019 12,1 16,5 22,0 22,4 21,3 27,4 36,2 24,1 39 63 83 1.008 1.015 1.021 NE 5,5 45,1 1,0
05/2019 8,2 12,9 21,4 18,3 18,8 23,0 29,9 21,7 52 69 84 1.005 1.015 1.024 SW 5,2 59,5 11,4
04/2019 7,4 10,4 13,1 14,6 13,9 18,7 27,8 20,4 38 72 97 1.002 1.013 1.019 SW 5,8 56,3 199,2
Tots els anys disponibles
2019 1,2 13,4 26,6 18,1 10,6 22,8 39,4 38,2 35 68 99 996 1.017 1.034 SW 5,0 78,9 936,8
2018 0,7 13,7 25,9 18,2 7,8 22,8 36,4 35,7 40 74 95 1.000 1.019 1.031 SW 5,0 72,4 601,8
2017 0,6 13,3 26,7 18,1 8,1 22,9 37,1 36,5 4,9 77,2 633,0
2016 1,3 13,8 24,5 18,3 7,8 22,8 39,1 37,8 5,5 70,8 446,8
2015 0,8 14,4 25,3 18,9 8,3 23,6 40,7 39,9 5,1 99,8 490,0
Temperatura (°C)
Humitat relativa (%)
Velocitat del vent i ràfega màxima (km/h)
Direcció del vent (°)
Pressió (hPa)
Precipitació (mm)
Nota sobre les dades: s'avisa a l'usuari de la provisionalitat i no oficialitat d'aquestes dades
Logo AVAMET blanc
Web allotjada a Sollutia
Llicència de Creative CommonsLa web d'AVAMET i els seus continguts estan subjectes a una llicència de
Reconeixement - No Comercial - Compartir igual
Últimes estacions:  Chera (Ajuntament soci), Benifaió (Inforatge), Altea - Com. Regants (Soci) - - -